sensor_id;sensor_type;location;lat;lon;timestamp;pressure;altitude;pressure_sealevel;temperature;humidity
23303;BME280;11820;48.738;9.092;2023-02-26T00:00:10;95749.56;;;1.14;100.00
23303;BME280;11820;48.738;9.092;2023-02-26T00:02:43;95746.97;;;1.06;100.00
23303;BME280;11820;48.738;9.092;2023-02-26T00:05:10;95750.53;;;1.13;100.00
23303;BME280;11820;48.738;9.092;2023-02-26T00:07:39;95745.84;;;1.26;100.00
23303;BME280;11820;48.738;9.092;2023-02-26T00:10:07;95752.59;;;1.10;100.00
23303;BME280;11820;48.738;9.092;2023-02-26T00:12:33;95748.66;;;1.15;100.00
23303;BME280;11820;48.738;9.092;2023-02-26T00:14:59;95754.09;;;1.20;100.00
23303;BME280;11820;48.738;9.092;2023-02-26T00:17:48;95749.72;;;1.13;100.00
23303;BME280;11820;48.738;9.092;2023-02-26T00:20:16;95750.25;;;1.16;100.00
23303;BME280;11820;48.738;9.092;2023-02-26T00:22:42;95745.38;;;1.05;100.00
23303;BME280;11820;48.738;9.092;2023-02-26T00:25:09;95748.91;;;1.12;100.00
23303;BME280;11820;48.738;9.092;2023-02-26T00:27:34;95747.28;;;1.03;100.00
23303;BME280;11820;48.738;9.092;2023-02-26T00:30:01;95747.56;;;1.00;100.00
23303;BME280;11820;48.738;9.092;2023-02-26T00:32:27;95750.63;;;0.86;100.00
23303;BME280;11820;48.738;9.092;2023-02-26T00:34:52;95751.16;;;0.90;100.00
23303;BME280;11820;48.738;9.092;2023-02-26T00:40:55;95746.16;;;0.80;100.00
23303;BME280;11820;48.738;9.092;2023-02-26T00:43:18;95755.66;;;0.78;100.00
23303;BME280;11820;48.738;9.092;2023-02-26T00:46:14;95756.31;;;0.80;100.00
23303;BME280;11820;48.738;9.092;2023-02-26T00:49:06;95755.16;;;0.57;100.00
23303;BME280;11820;48.738;9.092;2023-02-26T00:51:53;95758.00;;;0.72;100.00
23303;BME280;11820;48.738;9.092;2023-02-26T00:54:22;95758.53;;;0.58;100.00
23303;BME280;11820;48.738;9.092;2023-02-26T00:56:48;95753.44;;;0.40;100.00
23303;BME280;11820;48.738;9.092;2023-02-26T00:59:15;95760.47;;;0.64;100.00
23303;BME280;11820;48.738;9.092;2023-02-26T01:01:41;95760.53;;;0.54;100.00
23303;BME280;11820;48.738;9.092;2023-02-26T01:04:07;95755.16;;;0.57;100.00
23303;BME280;11820;48.738;9.092;2023-02-26T01:06:34;95751.84;;;0.39;100.00
23303;BME280;11820;48.738;9.092;2023-02-26T01:09:34;95755.16;;;0.40;100.00
23303;BME280;11820;48.738;9.092;2023-02-26T01:12:09;95757.28;;;0.44;100.00
23303;BME280;11820;48.738;9.092;2023-02-26T01:14:35;95771.00;;;0.51;100.00
23303;BME280;11820;48.738;9.092;2023-02-26T01:19:55;95758.34;;;0.42;100.00
23303;BME280;11820;48.738;9.092;2023-02-26T01:23:00;95759.59;;;0.55;100.00
23303;BME280;11820;48.738;9.092;2023-02-26T01:25:48;95759.47;;;0.39;100.00
23303;BME280;11820;48.738;9.092;2023-02-26T01:28:14;95750.38;;;0.54;100.00
23303;BME280;11820;48.738;9.092;2023-02-26T01:30:40;95760.84;;;0.51;100.00
23303;BME280;11820;48.738;9.092;2023-02-26T01:33:13;95754.38;;;0.39;100.00
23303;BME280;11820;48.738;9.092;2023-02-26T01:35:53;95755.75;;;0.51;100.00
23303;BME280;11820;48.738;9.092;2023-02-26T01:38:41;95751.59;;;0.50;100.00
23303;BME280;11820;48.738;9.092;2023-02-26T01:41:12;95755.47;;;0.54;100.00
23303;BME280;11820;48.738;9.092;2023-02-26T01:44:02;95749.47;;;0.28;100.00
23303;BME280;11820;48.738;9.092;2023-02-26T01:46:38;95749.19;;;0.31;100.00
23303;BME280;11820;48.738;9.092;2023-02-26T01:49:14;95758.94;;;0.18;100.00
23303;BME280;11820;48.738;9.092;2023-02-26T01:54:16;95756.03;;;0.13;100.00
23303;BME280;11820;48.738;9.092;2023-02-26T01:56:43;95761.28;;;0.02;100.00
23303;BME280;11820;48.738;9.092;2023-02-26T01:59:13;95762.25;;;-0.08;100.00
23303;BME280;11820;48.738;9.092;2023-02-26T02:01:40;95756.56;;;0.07;100.00
23303;BME280;11820;48.738;9.092;2023-02-26T02:04:09;95761.16;;;0.04;100.00
23303;BME280;11820;48.738;9.092;2023-02-26T02:06:36;95761.09;;;0.13;100.00
23303;BME280;11820;48.738;9.092;2023-02-26T02:09:05;95762.50;;;-0.02;100.00
23303;BME280;11820;48.738;9.092;2023-02-26T02:11:30;95761.78;;;-0.11;100.00
23303;BME280;11820;48.738;9.092;2023-02-26T02:14:17;95754.81;;;-0.09;100.00
23303;BME280;11820;48.738;9.092;2023-02-26T02:16:59;95762.03;;;-0.14;100.00
23303;BME280;11820;48.738;9.092;2023-02-26T02:28:05;95772.34;;;0.11;100.00
23303;BME280;11820;48.738;9.092;2023-02-26T02:33:56;95775.09;;;0.00;100.00
23303;BME280;11820;48.738;9.092;2023-02-26T02:36:50;95768.03;;;-0.15;100.00
23303;BME280;11820;48.738;9.092;2023-02-26T02:39:25;95785.28;;;-0.09;100.00
23303;BME280;11820;48.738;9.092;2023-02-26T02:42:03;95785.31;;;0.08;100.00
23303;BME280;11820;48.738;9.092;2023-02-26T02:44:33;95783.94;;;-0.13;100.00
23303;BME280;11820;48.738;9.092;2023-02-26T02:47:01;95789.75;;;0.06;100.00
23303;BME280;11820;48.738;9.092;2023-02-26T02:49:40;95791.31;;;0.16;100.00
23303;BME280;11820;48.738;9.092;2023-02-26T02:52:27;95791.63;;;0.04;100.00
23303;BME280;11820;48.738;9.092;2023-02-26T02:55:01;95793.19;;;0.14;100.00
23303;BME280;11820;48.738;9.092;2023-02-26T02:57:48;95794.84;;;0.06;100.00
23303;BME280;11820;48.738;9.092;2023-02-26T03:00:15;95794.72;;;0.25;100.00
23303;BME280;11820;48.738;9.092;2023-02-26T03:05:08;95794.31;;;0.02;100.00
23303;BME280;11820;48.738;9.092;2023-02-26T03:07:38;95799.59;;;0.18;100.00
23303;BME280;11820;48.738;9.092;2023-02-26T03:10:05;95800.03;;;0.04;100.00
23303;BME280;11820;48.738;9.092;2023-02-26T03:12:31;95805.50;;;0.09;100.00
23303;BME280;11820;48.738;9.092;2023-02-26T03:14:58;95809.50;;;-0.15;100.00
23303;BME280;11820;48.738;9.092;2023-02-26T03:17:55;95807.09;;;0.10;100.00
23303;BME280;11820;48.738;9.092;2023-02-26T03:20:26;95806.34;;;0.00;100.00
23303;BME280;11820;48.738;9.092;2023-02-26T03:26:11;95817.53;;;0.07;100.00
23303;BME280;11820;48.738;9.092;2023-02-26T03:28:47;95817.50;;;0.17;100.00
23303;BME280;11820;48.738;9.092;2023-02-26T03:31:30;95816.44;;;0.19;100.00
23303;BME280;11820;48.738;9.092;2023-02-26T03:34:06;95815.28;;;0.04;100.00
23303;BME280;11820;48.738;9.092;2023-02-26T03:36:47;95821.56;;;0.10;100.00
23303;BME280;11820;48.738;9.092;2023-02-26T03:39:19;95826.09;;;0.06;100.00
23303;BME280;11820;48.738;9.092;2023-02-26T03:41:52;95825.53;;;0.12;100.00
23303;BME280;11820;48.738;9.092;2023-02-26T03:44:38;95822.53;;;-0.01;100.00
23303;BME280;11820;48.738;9.092;2023-02-26T03:47:11;95824.78;;;0.02;100.00
23303;BME280;11820;48.738;9.092;2023-02-26T03:52:33;95819.06;;;0.00;100.00
23303;BME280;11820;48.738;9.092;2023-02-26T03:55:04;95822.66;;;-0.02;100.00
23303;BME280;11820;48.738;9.092;2023-02-26T03:57:33;95824.31;;;-0.10;100.00
23303;BME280;11820;48.738;9.092;2023-02-26T03:59:59;95819.47;;;-0.04;100.00
23303;BME280;11820;48.738;9.092;2023-02-26T04:02:29;95826.22;;;-0.12;100.00
23303;BME280;11820;48.738;9.092;2023-02-26T04:05:02;95837.97;;;-0.11;100.00
23303;BME280;11820;48.738;9.092;2023-02-26T04:07:28;95837.28;;;-0.13;100.00
23303;BME280;11820;48.738;9.092;2023-02-26T04:09:55;95833.97;;;-0.23;100.00
23303;BME280;11820;48.738;9.092;2023-02-26T04:12:21;95829.16;;;-0.17;100.00
23303;BME280;11820;48.738;9.092;2023-02-26T04:14:47;95830.56;;;-0.05;100.00
23303;BME280;11820;48.738;9.092;2023-02-26T04:17:12;95830.44;;;-0.03;100.00
23303;BME280;11820;48.738;9.092;2023-02-26T04:19:38;95841.44;;;-0.12;100.00
23303;BME280;11820;48.738;9.092;2023-02-26T04:22:03;95832.94;;;-0.30;100.00
23303;BME280;11820;48.738;9.092;2023-02-26T04:24:29;95834.03;;;-0.42;100.00
23303;BME280;11820;48.738;9.092;2023-02-26T04:26:54;95840.75;;;-0.51;100.00
23303;BME280;11820;48.738;9.092;2023-02-26T04:29:19;95846.56;;;-0.31;100.00
23303;BME280;11820;48.738;9.092;2023-02-26T04:31:44;95851.13;;;-0.44;100.00
23303;BME280;11820;48.738;9.092;2023-02-26T04:34:10;95851.34;;;-0.19;100.00
23303;BME280;11820;48.738;9.092;2023-02-26T04:36:35;95851.84;;;-0.15;100.00
23303;BME280;11820;48.738;9.092;2023-02-26T04:39:00;95854.19;;;-0.31;100.00
23303;BME280;11820;48.738;9.092;2023-02-26T04:41:26;95858.38;;;-0.03;100.00
23303;BME280;11820;48.738;9.092;2023-02-26T04:43:51;95855.22;;;-0.15;100.00
23303;BME280;11820;48.738;9.092;2023-02-26T04:46:16;95859.59;;;-0.07;100.00
23303;BME280;11820;48.738;9.092;2023-02-26T04:48:42;95858.69;;;-0.16;100.00
23303;BME280;11820;48.738;9.092;2023-02-26T04:51:07;95862.88;;;-0.34;100.00
23303;BME280;11820;48.738;9.092;2023-02-26T04:53:32;95869.03;;;-0.36;100.00
23303;BME280;11820;48.738;9.092;2023-02-26T04:55:58;95860.88;;;-0.30;100.00
23303;BME280;11820;48.738;9.092;2023-02-26T04:58:23;95864.78;;;-0.45;100.00
23303;BME280;11820;48.738;9.092;2023-02-26T05:00:50;95866.66;;;-0.47;100.00
23303;BME280;11820;48.738;9.092;2023-02-26T05:03:16;95862.25;;;-0.55;100.00
23303;BME280;11820;48.738;9.092;2023-02-26T05:05:41;95873.47;;;-0.48;100.00
23303;BME280;11820;48.738;9.092;2023-02-26T05:08:07;95862.13;;;-0.53;100.00
23303;BME280;11820;48.738;9.092;2023-02-26T05:10:32;95880.66;;;-0.53;100.00
23303;BME280;11820;48.738;9.092;2023-02-26T05:12:58;95876.28;;;-0.60;100.00
23303;BME280;11820;48.738;9.092;2023-02-26T05:15:23;95878.41;;;-0.46;100.00
23303;BME280;11820;48.738;9.092;2023-02-26T05:17:48;95879.78;;;-0.61;100.00
23303;BME280;11820;48.738;9.092;2023-02-26T05:20:14;95874.03;;;-0.82;100.00
23303;BME280;11820;48.738;9.092;2023-02-26T05:22:40;95884.84;;;-0.80;100.00
23303;BME280;11820;48.738;9.092;2023-02-26T05:25:06;95876.03;;;-0.76;100.00
23303;BME280;11820;48.738;9.092;2023-02-26T05:27:32;95883.25;;;-0.81;100.00
23303;BME280;11820;48.738;9.092;2023-02-26T05:29:58;95889.53;;;-1.04;100.00
23303;BME280;11820;48.738;9.092;2023-02-26T05:32:23;95885.13;;;-1.02;100.00
23303;BME280;11820;48.738;9.092;2023-02-26T05:34:48;95888.69;;;-1.05;100.00
23303;BME280;11820;48.738;9.092;2023-02-26T05:37:14;95890.31;;;-1.13;100.00
23303;BME280;11820;48.738;9.092;2023-02-26T05:39:39;95892.59;;;-1.10;100.00
23303;BME280;11820;48.738;9.092;2023-02-26T05:42:08;95898.44;;;-1.10;100.00
23303;BME280;11820;48.738;9.092;2023-02-26T05:44:33;95896.72;;;-1.09;100.00
23303;BME280;11820;48.738;9.092;2023-02-26T05:47:02;95902.19;;;-1.14;100.00
23303;BME280;11820;48.738;9.092;2023-02-26T05:49:27;95905.09;;;-1.18;100.00
23303;BME280;11820;48.738;9.092;2023-02-26T05:51:53;95905.41;;;-1.02;100.00
23303;BME280;11820;48.738;9.092;2023-02-26T05:54:18;95905.13;;;-1.09;100.00
23303;BME280;11820;48.738;9.092;2023-02-26T05:56:43;95915.25;;;-1.18;100.00
23303;BME280;11820;48.738;9.092;2023-02-26T05:59:09;95918.56;;;-1.27;100.00
23303;BME280;11820;48.738;9.092;2023-02-26T06:01:35;95918.03;;;-1.21;100.00
23303;BME280;11820;48.738;9.092;2023-02-26T06:04:04;95922.16;;;-1.30;100.00
23303;BME280;11820;48.738;9.092;2023-02-26T06:06:29;95923.34;;;-1.34;100.00
23303;BME280;11820;48.738;9.092;2023-02-26T06:08:55;95922.84;;;-1.18;100.00
23303;BME280;11820;48.738;9.092;2023-02-26T06:11:21;95937.00;;;-1.25;100.00
23303;BME280;11820;48.738;9.092;2023-02-26T06:13:46;95938.97;;;-1.38;100.00
23303;BME280;11820;48.738;9.092;2023-02-26T06:16:12;95947.00;;;-1.24;100.00
23303;BME280;11820;48.738;9.092;2023-02-26T06:18:37;95940.59;;;-1.18;100.00
23303;BME280;11820;48.738;9.092;2023-02-26T06:21:02;95951.53;;;-1.27;100.00
23303;BME280;11820;48.738;9.092;2023-02-26T06:23:28;95956.06;;;-1.21;100.00
23303;BME280;11820;48.738;9.092;2023-02-26T06:25:53;95960.38;;;-1.12;100.00
23303;BME280;11820;48.738;9.092;2023-02-26T06:28:19;95966.22;;;-1.21;100.00
23303;BME280;11820;48.738;9.092;2023-02-26T06:30:45;95971.22;;;-1.01;100.00
23303;BME280;11820;48.738;9.092;2023-02-26T06:33:10;95969.34;;;-0.99;100.00
23303;BME280;11820;48.738;9.092;2023-02-26T06:35:35;95967.34;;;-0.95;100.00
23303;BME280;11820;48.738;9.092;2023-02-26T06:38:01;95975.50;;;-0.92;100.00
23303;BME280;11820;48.738;9.092;2023-02-26T06:40:27;95986.91;;;-1.16;100.00
23303;BME280;11820;48.738;9.092;2023-02-26T06:42:52;95981.50;;;-1.02;100.00
23303;BME280;11820;48.738;9.092;2023-02-26T06:45:18;95990.59;;;-1.00;100.00
23303;BME280;11820;48.738;9.092;2023-02-26T06:47:43;96000.06;;;-0.92;100.00
23303;BME280;11820;48.738;9.092;2023-02-26T06:50:09;95995.38;;;-0.97;100.00
23303;BME280;11820;48.738;9.092;2023-02-26T06:52:35;96005.56;;;-0.87;100.00
23303;BME280;11820;48.738;9.092;2023-02-26T06:55:02;96012.09;;;-0.85;100.00
23303;BME280;11820;48.738;9.092;2023-02-26T06:57:27;96013.97;;;-0.87;100.00
23303;BME280;11820;48.738;9.092;2023-02-26T06:59:52;96013.78;;;-1.04;100.00
23303;BME280;11820;48.738;9.092;2023-02-26T07:02:19;96018.56;;;-1.11;100.00
23303;BME280;11820;48.738;9.092;2023-02-26T07:04:44;96018.28;;;-1.17;100.00
23303;BME280;11820;48.738;9.092;2023-02-26T07:07:10;96029.28;;;-0.98;100.00
23303;BME280;11820;48.738;9.092;2023-02-26T07:09:35;96026.34;;;-0.93;100.00
23303;BME280;11820;48.738;9.092;2023-02-26T07:12:01;96030.78;;;-0.86;100.00
23303;BME280;11820;48.738;9.092;2023-02-26T07:14:26;96037.44;;;-0.94;100.00
23303;BME280;11820;48.738;9.092;2023-02-26T07:16:52;96029.41;;;-0.99;100.00
23303;BME280;11820;48.738;9.092;2023-02-26T07:19:17;96029.56;;;-0.91;100.00
23303;BME280;11820;48.738;9.092;2023-02-26T07:21:42;96030.94;;;-0.78;100.00
23303;BME280;11820;48.738;9.092;2023-02-26T07:24:08;96028.28;;;-0.76;100.00
23303;BME280;11820;48.738;9.092;2023-02-26T07:26:33;96021.03;;;-0.81;100.00
23303;BME280;11820;48.738;9.092;2023-02-26T07:28:58;96032.94;;;-0.81;100.00
23303;BME280;11820;48.738;9.092;2023-02-26T07:31:24;96036.81;;;-0.77;100.00
23303;BME280;11820;48.738;9.092;2023-02-26T07:33:49;96039.22;;;-0.85;100.00
23303;BME280;11820;48.738;9.092;2023-02-26T07:36:14;96040.56;;;-0.72;100.00
23303;BME280;11820;48.738;9.092;2023-02-26T07:38:40;96043.25;;;-0.64;100.00
23303;BME280;11820;48.738;9.092;2023-02-26T07:41:05;96037.09;;;-0.52;100.00
23303;BME280;11820;48.738;9.092;2023-02-26T07:43:30;96038.47;;;-0.57;100.00
23303;BME280;11820;48.738;9.092;2023-02-26T07:45:56;96037.38;;;-0.45;100.00
23303;BME280;11820;48.738;9.092;2023-02-26T07:48:21;96044.47;;;-0.39;100.00
23303;BME280;11820;48.738;9.092;2023-02-26T07:50:50;96046.88;;;-0.47;100.00
23303;BME280;11820;48.738;9.092;2023-02-26T07:53:15;96048.13;;;-0.23;100.00
23303;BME280;11820;48.738;9.092;2023-02-26T07:55:41;96039.41;;;-0.02;100.00
23303;BME280;11820;48.738;9.092;2023-02-26T07:58:06;96037.81;;;-0.21;100.00
23303;BME280;11820;48.738;9.092;2023-02-26T08:00:31;96044.09;;;-0.35;100.00
23303;BME280;11820;48.738;9.092;2023-02-26T08:02:57;96047.97;;;-0.31;100.00
23303;BME280;11820;48.738;9.092;2023-02-26T08:05:22;96048.91;;;-0.22;100.00
23303;BME280;11820;48.738;9.092;2023-02-26T08:07:47;96049.47;;;0.00;100.00
23303;BME280;11820;48.738;9.092;2023-02-26T08:10:13;96053.19;;;-0.32;100.00
23303;BME280;11820;48.738;9.092;2023-02-26T08:12:38;96060.78;;;-0.51;100.00
23303;BME280;11820;48.738;9.092;2023-02-26T08:15:04;96061.84;;;-0.44;100.00
23303;BME280;11820;48.738;9.092;2023-02-26T08:17:30;96057.16;;;-0.58;100.00
23303;BME280;11820;48.738;9.092;2023-02-26T08:19:55;96062.50;;;-0.52;100.00
23303;BME280;11820;48.738;9.092;2023-02-26T08:22:20;96060.66;;;-0.40;100.00
23303;BME280;11820;48.738;9.092;2023-02-26T08:24:47;96051.31;;;-0.11;100.00
23303;BME280;11820;48.738;9.092;2023-02-26T08:27:13;96058.25;;;-0.04;100.00
23303;BME280;11820;48.738;9.092;2023-02-26T08:29:38;96060.00;;;-0.14;100.00
23303;BME280;11820;48.738;9.092;2023-02-26T08:32:03;96066.03;;;0.13;100.00
23303;BME280;11820;48.738;9.092;2023-02-26T08:34:28;96056.13;;;0.01;100.00
23303;BME280;11820;48.738;9.092;2023-02-26T08:36:54;96059.06;;;-0.03;100.00
23303;BME280;11820;48.738;9.092;2023-02-26T08:39:19;96056.38;;;-0.02;100.00
23303;BME280;11820;48.738;9.092;2023-02-26T08:41:44;96061.22;;;0.01;100.00
23303;BME280;11820;48.738;9.092;2023-02-26T08:44:10;96058.25;;;-0.04;100.00
23303;BME280;11820;48.738;9.092;2023-02-26T08:46:35;96057.03;;;0.09;100.00
23303;BME280;11820;48.738;9.092;2023-02-26T08:49:01;96068.41;;;-0.13;100.00
23303;BME280;11820;48.738;9.092;2023-02-26T08:51:26;96065.75;;;0.16;100.00
23303;BME280;11820;48.738;9.092;2023-02-26T08:53:51;96073.22;;;0.27;100.00
23303;BME280;11820;48.738;9.092;2023-02-26T08:56:17;96082.69;;;0.44;100.00
23303;BME280;11820;48.738;9.092;2023-02-26T08:58:42;96086.69;;;0.37;100.00
23303;BME280;11820;48.738;9.092;2023-02-26T09:01:08;96078.97;;;0.10;100.00
23303;BME280;11820;48.738;9.092;2023-02-26T09:03:33;96089.13;;;0.29;100.00
23303;BME280;11820;48.738;9.092;2023-02-26T09:05:59;96092.63;;;0.09;100.00
23303;BME280;11820;48.738;9.092;2023-02-26T09:08:24;96100.22;;;-0.28;100.00
23303;BME280;11820;48.738;9.092;2023-02-26T09:10:50;96098.91;;;0.05;100.00
23303;BME280;11820;48.738;9.092;2023-02-26T09:13:15;96101.84;;;-0.18;100.00
23303;BME280;11820;48.738;9.092;2023-02-26T09:15:41;96104.16;;;0.13;100.00
23303;BME280;11820;48.738;9.092;2023-02-26T09:18:06;96097.44;;;0.12;100.00
23303;BME280;11820;48.738;9.092;2023-02-26T09:20:39;96110.13;;;0.12;100.00
23303;BME280;11820;48.738;9.092;2023-02-26T09:23:04;96105.88;;;0.41;100.00
23303;BME280;11820;48.738;9.092;2023-02-26T09:25:29;96104.78;;;0.44;100.00
23303;BME280;11820;48.738;9.092;2023-02-26T09:27:55;96105.97;;;0.59;100.00
23303;BME280;11820;48.738;9.092;2023-02-26T09:30:20;96106.41;;;0.26;100.00
23303;BME280;11820;48.738;9.092;2023-02-26T09:32:45;96103.16;;;0.33;100.00
23303;BME280;11820;48.738;9.092;2023-02-26T09:35:11;96113.31;;;0.52;100.00
23303;BME280;11820;48.738;9.092;2023-02-26T09:37:36;96117.34;;;0.45;100.00
23303;BME280;11820;48.738;9.092;2023-02-26T09:40:01;96115.50;;;0.28;100.00
23303;BME280;11820;48.738;9.092;2023-02-26T09:42:52;96119.25;;;0.34;100.00
23303;BME280;11820;48.738;9.092;2023-02-26T09:45:29;96131.53;;;0.48;100.00
23303;BME280;11820;48.738;9.092;2023-02-26T09:47:56;96126.84;;;0.53;100.00
23303;BME280;11820;48.738;9.092;2023-02-26T09:53:11;96131.78;;;0.35;100.00
23303;BME280;11820;48.738;9.092;2023-02-26T09:55:42;96142.06;;;0.62;100.00
23303;BME280;11820;48.738;9.092;2023-02-26T09:58:22;96136.50;;;0.49;100.00
23303;BME280;11820;48.738;9.092;2023-02-26T10:01:16;96142.22;;;0.51;100.00
23303;BME280;11820;48.738;9.092;2023-02-26T10:06:30;96143.06;;;0.33;100.00
23303;BME280;11820;48.738;9.092;2023-02-26T10:09:12;96148.66;;;0.36;100.00
23303;BME280;11820;48.738;9.092;2023-02-26T10:14:33;96149.75;;;0.53;100.00
23303;BME280;11820;48.738;9.092;2023-02-26T10:17:04;96157.88;;;0.47;100.00
23303;BME280;11820;48.738;9.092;2023-02-26T10:19:34;96163.91;;;0.36;100.00
23303;BME280;11820;48.738;9.092;2023-02-26T10:24:46;96152.94;;;0.26;100.00
23303;BME280;11820;48.738;9.092;2023-02-26T10:27:15;96158.56;;;0.20;100.00
23303;BME280;11820;48.738;9.092;2023-02-26T10:29:58;96169.78;;;-0.01;100.00
23303;BME280;11820;48.738;9.092;2023-02-26T10:32:53;96169.66;;;0.00;100.00
23303;BME280;11820;48.738;9.092;2023-02-26T10:35:20;96170.31;;;0.02;100.00
23303;BME280;11820;48.738;9.092;2023-02-26T10:50:57;96171.13;;;0.12;100.00
23303;BME280;11820;48.738;9.092;2023-02-26T10:53:33;96179.69;;;0.11;100.00
23303;BME280;11820;48.738;9.092;2023-02-26T10:56:11;96175.66;;;-0.01;100.00
23303;BME280;11820;48.738;9.092;2023-02-26T10:58:38;96183.41;;;0.07;100.00
23303;BME280;11820;48.738;9.092;2023-02-26T11:01:06;96181.31;;;0.22;100.00
23303;BME280;11820;48.738;9.092;2023-02-26T11:03:41;96178.38;;;0.36;100.00
23303;BME280;11820;48.738;9.092;2023-02-26T11:06:09;96176.38;;;0.30;100.00
23303;BME280;11820;48.738;9.092;2023-02-26T11:08:42;96171.41;;;0.47;100.00
23303;BME280;11820;48.738;9.092;2023-02-26T11:11:09;96173.28;;;0.36;100.00
23303;BME280;11820;48.738;9.092;2023-02-26T11:13:37;96175.84;;;0.45;100.00
23303;BME280;11820;48.738;9.092;2023-02-26T11:16:16;96172.19;;;0.57;100.00
23303;BME280;11820;48.738;9.092;2023-02-26T11:18:53;96169.81;;;0.65;100.00
23303;BME280;11820;48.738;9.092;2023-02-26T11:21:25;96160.56;;;0.64;100.00
23303;BME280;11820;48.738;9.092;2023-02-26T11:23:56;96168.06;;;0.47;100.00
23303;BME280;11820;48.738;9.092;2023-02-26T11:26:26;96171.69;;;0.54;100.00
23303;BME280;11820;48.738;9.092;2023-02-26T11:28:57;96167.66;;;0.70;100.00
23303;BME280;11820;48.738;9.092;2023-02-26T11:31:23;96168.31;;;0.82;100.00
23303;BME280;11820;48.738;9.092;2023-02-26T11:33:58;96177.84;;;0.61;100.00
23303;BME280;11820;48.738;9.092;2023-02-26T11:36:27;96166.56;;;0.63;100.00
23303;BME280;11820;48.738;9.092;2023-02-26T11:39:00;96166.81;;;0.89;100.00
23303;BME280;11820;48.738;9.092;2023-02-26T11:41:27;96172.34;;;0.65;100.00
23303;BME280;11820;48.738;9.092;2023-02-26T11:44:05;96164.97;;;0.72;100.00
23303;BME280;11820;48.738;9.092;2023-02-26T11:46:39;96173.00;;;0.77;100.00
23303;BME280;11820;48.738;9.092;2023-02-26T11:49:09;96180.75;;;0.75;100.00
23303;BME280;11820;48.738;9.092;2023-02-26T11:51:36;96172.75;;;0.70;100.00
23303;BME280;11820;48.738;9.092;2023-02-26T11:54:01;96170.03;;;0.81;100.00
23303;BME280;11820;48.738;9.092;2023-02-26T11:56:31;96176.13;;;1.07;100.00
23303;BME280;11820;48.738;9.092;2023-02-26T11:59:04;96176.69;;;1.01;100.00
23303;BME280;11820;48.738;9.092;2023-02-26T12:01:31;96172.16;;;1.05;100.00
23303;BME280;11820;48.738;9.092;2023-02-26T12:04:01;96176.00;;;1.09;100.00
23303;BME280;11820;48.738;9.092;2023-02-26T12:06:26;96177.63;;;1.00;100.00
23303;BME280;11820;48.738;9.092;2023-02-26T12:08:52;96173.22;;;1.02;100.00
23303;BME280;11820;48.738;9.092;2023-02-26T12:16:42;96173.78;;;0.77;100.00
23303;BME280;11820;48.738;9.092;2023-02-26T12:19:35;96177.78;;;0.89;100.00
23303;BME280;11820;48.738;9.092;2023-02-26T12:22:15;96187.97;;;0.89;100.00
23303;BME280;11820;48.738;9.092;2023-02-26T12:35:59;96201.22;;;0.93;100.00
23303;BME280;11820;48.738;9.092;2023-02-26T12:38:45;96197.09;;;0.73;100.00
23303;BME280;11820;48.738;9.092;2023-02-26T12:41:23;96195.63;;;0.70;100.00
23303;BME280;11820;48.738;9.092;2023-02-26T12:43:54;96199.63;;;0.82;100.00
23303;BME280;11820;48.738;9.092;2023-02-26T12:46:56;96196.53;;;0.88;100.00
23303;BME280;11820;48.738;9.092;2023-02-26T13:00:36;96180.44;;;1.07;100.00
23303;BME280;11820;48.738;9.092;2023-02-26T13:03:21;96196.19;;;1.29;100.00
23303;BME280;11820;48.738;9.092;2023-02-26T13:08:45;96193.72;;;1.37;100.00
23303;BME280;11820;48.738;9.092;2023-02-26T13:21:50;96202.34;;;1.27;100.00
23303;BME280;11820;48.738;9.092;2023-02-26T13:24:33;96193.44;;;1.40;100.00
23303;BME280;11820;48.738;9.092;2023-02-26T13:27:01;96190.31;;;1.29;100.00
23303;BME280;11820;48.738;9.092;2023-02-26T13:29:32;96195.78;;;1.34;100.00
23303;BME280;11820;48.738;9.092;2023-02-26T13:32:04;96204.94;;;1.17;100.00
23303;BME280;11820;48.738;9.092;2023-02-26T13:37:30;96196.56;;;1.34;100.00
23303;BME280;11820;48.738;9.092;2023-02-26T13:43:08;96202.03;;;1.39;100.00
23303;BME280;11820;48.738;9.092;2023-02-26T13:50:54;96210.59;;;1.48;100.00
23303;BME280;11820;48.738;9.092;2023-02-26T13:58:53;96214.13;;;1.64;100.00
23303;BME280;11820;48.738;9.092;2023-02-26T14:01:27;96218.34;;;1.92;100.00
23303;BME280;11820;48.738;9.092;2023-02-26T14:06:44;96216.06;;;2.68;100.00
23303;BME280;11820;48.738;9.092;2023-02-26T14:19:36;96217.19;;;2.04;100.00
23303;BME280;11820;48.738;9.092;2023-02-26T14:24:57;96214.38;;;2.24;100.00
23303;BME280;11820;48.738;9.092;2023-02-26T14:27:33;96220.66;;;2.30;100.00
23303;BME280;11820;48.738;9.092;2023-02-26T14:32:32;96227.50;;;2.02;100.00
23303;BME280;11820;48.738;9.092;2023-02-26T14:35:04;96215.25;;;3.28;100.00
23303;BME280;11820;48.738;9.092;2023-02-26T14:37:32;96205.50;;;3.90;100.00
23303;BME280;11820;48.738;9.092;2023-02-26T14:40:13;96202.44;;;4.44;100.00
23303;BME280;11820;48.738;9.092;2023-02-26T14:42:52;96212.94;;;3.42;100.00
23303;BME280;11820;48.738;9.092;2023-02-26T14:45:30;96210.94;;;2.86;100.00
23303;BME280;11820;48.738;9.092;2023-02-26T14:47:58;96225.09;;;2.45;100.00
23303;BME280;11820;48.738;9.092;2023-02-26T14:50:34;96219.94;;;2.37;100.00
23303;BME280;11820;48.738;9.092;2023-02-26T14:55:58;96232.81;;;2.36;100.00
23303;BME280;11820;48.738;9.092;2023-02-26T14:58:48;96228.34;;;3.08;100.00
23303;BME280;11820;48.738;9.092;2023-02-26T15:02:20;96229.34;;;2.72;100.00
23303;BME280;11820;48.738;9.092;2023-02-26T15:04:35;96239.03;;;3.79;100.00
23303;BME280;11820;48.738;9.092;2023-02-26T15:15:59;96246.47;;;2.97;100.00
23303;BME280;11820;48.738;9.092;2023-02-26T15:21:06;96244.59;;;4.16;99.17
23303;BME280;11820;48.738;9.092;2023-02-26T15:23:46;96257.47;;;2.97;100.00
23303;BME280;11820;48.738;9.092;2023-02-26T15:26:24;96253.69;;;2.66;100.00
23303;BME280;11820;48.738;9.092;2023-02-26T15:28:51;96257.75;;;2.42;100.00
23303;BME280;11820;48.738;9.092;2023-02-26T15:31:19;96245.13;;;2.23;100.00
23303;BME280;11820;48.738;9.092;2023-02-26T15:33:48;96269.03;;;2.22;100.00